sensor_id;sensor_type;location;lat;lon;timestamp;temperature;humidity
17740;DHT22;8990;33.226;-97.150;2022-12-10T00:02:01;18.50;99.90
17740;DHT22;8990;33.226;-97.150;2022-12-10T00:04:30;18.40;99.90
17740;DHT22;8990;33.226;-97.150;2022-12-10T00:07:01;18.40;99.90
17740;DHT22;8990;33.226;-97.150;2022-12-10T00:09:30;18.40;99.90
17740;DHT22;8990;33.226;-97.150;2022-12-10T00:12:00;18.30;99.90
17740;DHT22;8990;33.226;-97.150;2022-12-10T00:14:33;18.30;99.90
17740;DHT22;8990;33.226;-97.150;2022-12-10T00:17:03;18.30;99.90
17740;DHT22;8990;33.226;-97.150;2022-12-10T00:19:32;18.30;99.90
17740;DHT22;8990;33.226;-97.150;2022-12-10T00:22:01;18.30;99.90
17740;DHT22;8990;33.226;-97.150;2022-12-10T00:24:30;18.30;99.90
17740;DHT22;8990;33.226;-97.150;2022-12-10T00:27:00;18.30;99.90
17740;DHT22;8990;33.226;-97.150;2022-12-10T00:29:32;18.20;99.90
17740;DHT22;8990;33.226;-97.150;2022-12-10T00:32:02;18.20;99.90
17740;DHT22;8990;33.226;-97.150;2022-12-10T00:34:33;18.20;99.90
17740;DHT22;8990;33.226;-97.150;2022-12-10T00:37:03;18.20;99.90
17740;DHT22;8990;33.226;-97.150;2022-12-10T00:39:32;18.20;99.90
17740;DHT22;8990;33.226;-97.150;2022-12-10T00:42:02;18.20;99.90
17740;DHT22;8990;33.226;-97.150;2022-12-10T00:44:34;18.20;99.90
17740;DHT22;8990;33.226;-97.150;2022-12-10T00:47:04;18.20;99.90
17740;DHT22;8990;33.226;-97.150;2022-12-10T00:49:33;18.30;99.90
17740;DHT22;8990;33.226;-97.150;2022-12-10T00:52:03;18.30;99.90
17740;DHT22;8990;33.226;-97.150;2022-12-10T00:54:32;18.20;99.90
17740;DHT22;8990;33.226;-97.150;2022-12-10T00:57:01;18.30;99.90
17740;DHT22;8990;33.226;-97.150;2022-12-10T00:59:30;18.30;99.90
17740;DHT22;8990;33.226;-97.150;2022-12-10T01:02:02;18.30;99.90
17740;DHT22;8990;33.226;-97.150;2022-12-10T01:04:31;18.20;99.90
17740;DHT22;8990;33.226;-97.150;2022-12-10T01:07:00;18.20;99.90
17740;DHT22;8990;33.226;-97.150;2022-12-10T01:09:30;18.20;99.90
17740;DHT22;8990;33.226;-97.150;2022-12-10T01:12:02;18.20;99.90
17740;DHT22;8990;33.226;-97.150;2022-12-10T01:14:33;18.20;99.90
17740;DHT22;8990;33.226;-97.150;2022-12-10T01:17:05;18.20;99.90
17740;DHT22;8990;33.226;-97.150;2022-12-10T01:19:35;18.10;99.90
17740;DHT22;8990;33.226;-97.150;2022-12-10T01:22:04;18.10;99.90
17740;DHT22;8990;33.226;-97.150;2022-12-10T01:24:36;18.10;99.90
17740;DHT22;8990;33.226;-97.150;2022-12-10T01:27:07;18.10;99.90
17740;DHT22;8990;33.226;-97.150;2022-12-10T01:29:36;18.10;99.90
17740;DHT22;8990;33.226;-97.150;2022-12-10T01:32:06;18.10;99.90
17740;DHT22;8990;33.226;-97.150;2022-12-10T01:34:39;18.00;99.90
17740;DHT22;8990;33.226;-97.150;2022-12-10T01:37:08;18.00;99.90
17740;DHT22;8990;33.226;-97.150;2022-12-10T01:39:38;18.00;99.90
17740;DHT22;8990;33.226;-97.150;2022-12-10T01:42:12;18.00;99.90
17740;DHT22;8990;33.226;-97.150;2022-12-10T01:45:04;18.00;99.90
17740;DHT22;8990;33.226;-97.150;2022-12-10T01:47:35;18.00;99.90
17740;DHT22;8990;33.226;-97.150;2022-12-10T01:50:06;18.00;99.90
17740;DHT22;8990;33.226;-97.150;2022-12-10T01:52:38;18.00;99.90
17740;DHT22;8990;33.226;-97.150;2022-12-10T01:55:35;18.10;99.90
17740;DHT22;8990;33.226;-97.150;2022-12-10T01:57:59;18.00;99.90
17740;DHT22;8990;33.226;-97.150;2022-12-10T02:00:30;18.00;99.90
17740;DHT22;8990;33.226;-97.150;2022-12-10T02:03:07;18.00;99.90
17740;DHT22;8990;33.226;-97.150;2022-12-10T02:05:42;18.00;99.90
17740;DHT22;8990;33.226;-97.150;2022-12-10T02:08:19;18.10;99.90
17740;DHT22;8990;33.226;-97.150;2022-12-10T02:10:59;18.00;99.90
17740;DHT22;8990;33.226;-97.150;2022-12-10T02:13:34;18.00;99.90
17740;DHT22;8990;33.226;-97.150;2022-12-10T02:16:13;18.10;99.90
17740;DHT22;8990;33.226;-97.150;2022-12-10T02:18:48;18.00;99.90
17740;DHT22;8990;33.226;-97.150;2022-12-10T02:21:24;18.00;99.90
17740;DHT22;8990;33.226;-97.150;2022-12-10T02:23:57;17.90;99.90
17740;DHT22;8990;33.226;-97.150;2022-12-10T02:26:34;18.00;99.90
17740;DHT22;8990;33.226;-97.150;2022-12-10T02:29:12;18.00;99.90
17740;DHT22;8990;33.226;-97.150;2022-12-10T02:31:45;18.00;99.90
17740;DHT22;8990;33.226;-97.150;2022-12-10T02:34:16;18.00;99.90
17740;DHT22;8990;33.226;-97.150;2022-12-10T02:36:51;18.00;99.90
17740;DHT22;8990;33.226;-97.150;2022-12-10T02:39:26;18.00;99.90
17740;DHT22;8990;33.226;-97.150;2022-12-10T02:41:59;18.00;99.90
17740;DHT22;8990;33.226;-97.150;2022-12-10T02:44:34;18.00;99.90
17740;DHT22;8990;33.226;-97.150;2022-12-10T02:47:07;18.00;99.90
17740;DHT22;8990;33.226;-97.150;2022-12-10T02:49:40;18.00;99.90
17740;DHT22;8990;33.226;-97.150;2022-12-10T02:52:14;17.90;99.90
17740;DHT22;8990;33.226;-97.150;2022-12-10T02:54:46;17.90;99.90
17740;DHT22;8990;33.226;-97.150;2022-12-10T02:57:35;17.90;99.90
17740;DHT22;8990;33.226;-97.150;2022-12-10T03:00:11;17.90;99.90
17740;DHT22;8990;33.226;-97.150;2022-12-10T03:03:13;17.90;99.90
17740;DHT22;8990;33.226;-97.150;2022-12-10T03:05:48;17.90;99.90
17740;DHT22;8990;33.226;-97.150;2022-12-10T03:08:23;17.80;99.90
17740;DHT22;8990;33.226;-97.150;2022-12-10T03:10:57;17.80;99.90
17740;DHT22;8990;33.226;-97.150;2022-12-10T03:13:31;17.80;99.90
17740;DHT22;8990;33.226;-97.150;2022-12-10T03:16:04;17.80;99.90
17740;DHT22;8990;33.226;-97.150;2022-12-10T03:18:35;17.80;99.90
17740;DHT22;8990;33.226;-97.150;2022-12-10T03:21:06;17.80;99.90
17740;DHT22;8990;33.226;-97.150;2022-12-10T03:23:41;17.80;99.90
17740;DHT22;8990;33.226;-97.150;2022-12-10T03:26:13;17.80;99.90
17740;DHT22;8990;33.226;-97.150;2022-12-10T03:28:46;17.80;99.90
17740;DHT22;8990;33.226;-97.150;2022-12-10T03:31:20;17.80;99.90
17740;DHT22;8990;33.226;-97.150;2022-12-10T03:33:50;17.80;99.90
17740;DHT22;8990;33.226;-97.150;2022-12-10T03:36:22;17.80;99.90
17740;DHT22;8990;33.226;-97.150;2022-12-10T03:38:51;17.80;99.90
17740;DHT22;8990;33.226;-97.150;2022-12-10T03:41:21;17.80;99.90
17740;DHT22;8990;33.226;-97.150;2022-12-10T03:43:51;17.70;99.90
17740;DHT22;8990;33.226;-97.150;2022-12-10T03:46:24;17.80;99.90
17740;DHT22;8990;33.226;-97.150;2022-12-10T03:48:54;17.70;99.90
17740;DHT22;8990;33.226;-97.150;2022-12-10T03:51:23;17.70;99.90
17740;DHT22;8990;33.226;-97.150;2022-12-10T03:53:53;17.80;99.90
17740;DHT22;8990;33.226;-97.150;2022-12-10T03:56:23;17.70;99.90
17740;DHT22;8990;33.226;-97.150;2022-12-10T03:58:52;17.70;99.90
17740;DHT22;8990;33.226;-97.150;2022-12-10T04:01:23;17.70;99.90
17740;DHT22;8990;33.226;-97.150;2022-12-10T04:03:52;17.70;99.90
17740;DHT22;8990;33.226;-97.150;2022-12-10T04:06:22;17.80;99.90
17740;DHT22;8990;33.226;-97.150;2022-12-10T04:08:53;17.80;99.90
17740;DHT22;8990;33.226;-97.150;2022-12-10T04:11:23;17.80;99.90
17740;DHT22;8990;33.226;-97.150;2022-12-10T04:13:52;17.80;99.90
17740;DHT22;8990;33.226;-97.150;2022-12-10T04:16:41;17.80;99.90
17740;DHT22;8990;33.226;-97.150;2022-12-10T04:19:13;17.80;99.90
17740;DHT22;8990;33.226;-97.150;2022-12-10T04:21:45;17.80;99.90
17740;DHT22;8990;33.226;-97.150;2022-12-10T04:24:32;17.80;99.90
17740;DHT22;8990;33.226;-97.150;2022-12-10T04:27:22;17.80;99.90
17740;DHT22;8990;33.226;-97.150;2022-12-10T04:29:52;17.80;99.90
17740;DHT22;8990;33.226;-97.150;2022-12-10T04:32:25;17.80;99.90
17740;DHT22;8990;33.226;-97.150;2022-12-10T04:34:56;17.80;99.90
17740;DHT22;8990;33.226;-97.150;2022-12-10T04:37:25;17.80;99.90
17740;DHT22;8990;33.226;-97.150;2022-12-10T04:39:56;17.80;99.90
17740;DHT22;8990;33.226;-97.150;2022-12-10T04:42:25;17.80;99.90
17740;DHT22;8990;33.226;-97.150;2022-12-10T04:44:56;17.80;99.90
17740;DHT22;8990;33.226;-97.150;2022-12-10T04:47:28;17.80;99.90
17740;DHT22;8990;33.226;-97.150;2022-12-10T04:49:57;17.80;99.90
17740;DHT22;8990;33.226;-97.150;2022-12-10T04:52:26;17.80;99.90
17740;DHT22;8990;33.226;-97.150;2022-12-10T04:54:55;17.80;99.90
17740;DHT22;8990;33.226;-97.150;2022-12-10T04:57:25;17.80;99.90
17740;DHT22;8990;33.226;-97.150;2022-12-10T04:59:54;17.80;99.90
17740;DHT22;8990;33.226;-97.150;2022-12-10T05:02:24;17.80;99.90
17740;DHT22;8990;33.226;-97.150;2022-12-10T05:04:55;17.80;99.90
17740;DHT22;8990;33.226;-97.150;2022-12-10T05:07:27;17.80;99.90
17740;DHT22;8990;33.226;-97.150;2022-12-10T05:09:56;17.70;99.90
17740;DHT22;8990;33.226;-97.150;2022-12-10T05:12:26;17.70;99.90
17740;DHT22;8990;33.226;-97.150;2022-12-10T05:14:56;17.70;99.90
17740;DHT22;8990;33.226;-97.150;2022-12-10T05:17:26;17.70;99.90
17740;DHT22;8990;33.226;-97.150;2022-12-10T05:19:58;17.70;99.90
17740;DHT22;8990;33.226;-97.150;2022-12-10T05:22:28;17.80;99.90
17740;DHT22;8990;33.226;-97.150;2022-12-10T05:25:15;17.80;99.90
17740;DHT22;8990;33.226;-97.150;2022-12-10T05:27:45;17.70;99.90
17740;DHT22;8990;33.226;-97.150;2022-12-10T05:30:14;17.70;99.90
17740;DHT22;8990;33.226;-97.150;2022-12-10T05:32:43;17.70;99.90
17740;DHT22;8990;33.226;-97.150;2022-12-10T05:35:18;17.70;99.90
17740;DHT22;8990;33.226;-97.150;2022-12-10T05:37:47;17.70;99.90
17740;DHT22;8990;33.226;-97.150;2022-12-10T05:40:16;17.70;99.90
17740;DHT22;8990;33.226;-97.150;2022-12-10T05:42:47;17.70;99.90
17740;DHT22;8990;33.226;-97.150;2022-12-10T05:45:17;17.70;99.90
17740;DHT22;8990;33.226;-97.150;2022-12-10T05:47:46;17.70;99.90
17740;DHT22;8990;33.226;-97.150;2022-12-10T05:50:17;17.70;99.90
17740;DHT22;8990;33.226;-97.150;2022-12-10T05:52:47;17.70;99.90
17740;DHT22;8990;33.226;-97.150;2022-12-10T05:55:21;17.70;99.90
17740;DHT22;8990;33.226;-97.150;2022-12-10T05:57:50;17.70;99.90
17740;DHT22;8990;33.226;-97.150;2022-12-10T06:00:20;17.70;99.90
17740;DHT22;8990;33.226;-97.150;2022-12-10T06:02:50;17.70;99.90
17740;DHT22;8990;33.226;-97.150;2022-12-10T06:05:23;17.70;99.90
17740;DHT22;8990;33.226;-97.150;2022-12-10T06:07:52;17.70;99.90
17740;DHT22;8990;33.226;-97.150;2022-12-10T06:10:22;17.70;99.90
17740;DHT22;8990;33.226;-97.150;2022-12-10T06:12:51;17.70;99.90
17740;DHT22;8990;33.226;-97.150;2022-12-10T06:15:20;17.70;99.90
17740;DHT22;8990;33.226;-97.150;2022-12-10T06:17:49;17.70;99.90
17740;DHT22;8990;33.226;-97.150;2022-12-10T06:20:22;17.70;99.90
17740;DHT22;8990;33.226;-97.150;2022-12-10T06:22:53;17.70;99.90
17740;DHT22;8990;33.226;-97.150;2022-12-10T06:25:23;17.70;99.90
17740;DHT22;8990;33.226;-97.150;2022-12-10T06:27:52;17.70;99.90
17740;DHT22;8990;33.226;-97.150;2022-12-10T06:30:22;17.70;99.90
17740;DHT22;8990;33.226;-97.150;2022-12-10T06:32:52;17.70;99.90
17740;DHT22;8990;33.226;-97.150;2022-12-10T06:35:23;17.70;99.90
17740;DHT22;8990;33.226;-97.150;2022-12-10T06:37:52;17.70;99.90
17740;DHT22;8990;33.226;-97.150;2022-12-10T06:40:22;17.70;99.90
17740;DHT22;8990;33.226;-97.150;2022-12-10T06:42:52;17.70;99.90
17740;DHT22;8990;33.226;-97.150;2022-12-10T06:45:22;17.70;99.90
17740;DHT22;8990;33.226;-97.150;2022-12-10T06:47:51;17.80;99.90
17740;DHT22;8990;33.226;-97.150;2022-12-10T06:50:22;17.80;99.90
17740;DHT22;8990;33.226;-97.150;2022-12-10T06:52:52;17.80;99.90
17740;DHT22;8990;33.226;-97.150;2022-12-10T06:55:23;17.80;99.90
17740;DHT22;8990;33.226;-97.150;2022-12-10T06:57:53;17.80;99.90
17740;DHT22;8990;33.226;-97.150;2022-12-10T07:00:24;17.80;99.90
17740;DHT22;8990;33.226;-97.150;2022-12-10T07:02:53;17.80;99.90
17740;DHT22;8990;33.226;-97.150;2022-12-10T07:05:24;17.80;99.90
17740;DHT22;8990;33.226;-97.150;2022-12-10T07:07:53;17.80;99.90
17740;DHT22;8990;33.226;-97.150;2022-12-10T07:10:23;17.80;99.90
17740;DHT22;8990;33.226;-97.150;2022-12-10T07:12:52;17.80;99.90
17740;DHT22;8990;33.226;-97.150;2022-12-10T07:15:23;17.80;99.90
17740;DHT22;8990;33.226;-97.150;2022-12-10T07:17:54;17.80;99.90
17740;DHT22;8990;33.226;-97.150;2022-12-10T07:20:26;17.80;99.90
17740;DHT22;8990;33.226;-97.150;2022-12-10T07:22:55;17.80;99.90
17740;DHT22;8990;33.226;-97.150;2022-12-10T07:25:25;17.80;99.90
17740;DHT22;8990;33.226;-97.150;2022-12-10T07:27:54;17.80;99.90
17740;DHT22;8990;33.226;-97.150;2022-12-10T07:30:24;17.80;99.90
17740;DHT22;8990;33.226;-97.150;2022-12-10T07:32:52;17.80;99.90
17740;DHT22;8990;33.226;-97.150;2022-12-10T07:35:25;17.80;99.90
17740;DHT22;8990;33.226;-97.150;2022-12-10T07:37:54;17.80;99.90
17740;DHT22;8990;33.226;-97.150;2022-12-10T07:40:24;17.90;99.90
17740;DHT22;8990;33.226;-97.150;2022-12-10T07:42:53;17.90;99.90
17740;DHT22;8990;33.226;-97.150;2022-12-10T07:45:23;17.90;99.90
17740;DHT22;8990;33.226;-97.150;2022-12-10T07:47:54;17.90;99.90
17740;DHT22;8990;33.226;-97.150;2022-12-10T07:50:25;17.90;99.90
17740;DHT22;8990;33.226;-97.150;2022-12-10T07:52:54;17.90;99.90
17740;DHT22;8990;33.226;-97.150;2022-12-10T07:55:24;17.80;99.90
17740;DHT22;8990;33.226;-97.150;2022-12-10T07:57:53;17.90;99.90
17740;DHT22;8990;33.226;-97.150;2022-12-10T08:00:22;17.80;99.90
17740;DHT22;8990;33.226;-97.150;2022-12-10T08:02:51;17.90;99.90
17740;DHT22;8990;33.226;-97.150;2022-12-10T08:05:21;17.90;99.90
17740;DHT22;8990;33.226;-97.150;2022-12-10T08:07:52;17.90;99.90
17740;DHT22;8990;33.226;-97.150;2022-12-10T08:10:22;17.90;99.90
17740;DHT22;8990;33.226;-97.150;2022-12-10T08:12:51;17.90;99.90
17740;DHT22;8990;33.226;-97.150;2022-12-10T08:15:21;18.00;99.90
17740;DHT22;8990;33.226;-97.150;2022-12-10T08:17:50;17.90;99.90
17740;DHT22;8990;33.226;-97.150;2022-12-10T08:20:20;17.90;99.90
17740;DHT22;8990;33.226;-97.150;2022-12-10T08:22:52;17.90;99.90
17740;DHT22;8990;33.226;-97.150;2022-12-10T08:25:22;17.90;99.90
17740;DHT22;8990;33.226;-97.150;2022-12-10T08:27:50;18.00;99.90
17740;DHT22;8990;33.226;-97.150;2022-12-10T08:30:21;18.00;99.90
17740;DHT22;8990;33.226;-97.150;2022-12-10T08:32:50;18.00;99.90
17740;DHT22;8990;33.226;-97.150;2022-12-10T08:35:21;18.00;99.90
17740;DHT22;8990;33.226;-97.150;2022-12-10T08:37:52;18.00;99.90
17740;DHT22;8990;33.226;-97.150;2022-12-10T08:40:22;18.00;99.90
17740;DHT22;8990;33.226;-97.150;2022-12-10T08:42:52;18.00;99.90
17740;DHT22;8990;33.226;-97.150;2022-12-10T08:45:22;18.00;99.90
17740;DHT22;8990;33.226;-97.150;2022-12-10T08:47:52;18.00;99.90
17740;DHT22;8990;33.226;-97.150;2022-12-10T08:50:22;18.00;99.90
17740;DHT22;8990;33.226;-97.150;2022-12-10T08:52:53;18.00;99.90
17740;DHT22;8990;33.226;-97.150;2022-12-10T08:55:22;18.00;99.90
17740;DHT22;8990;33.226;-97.150;2022-12-10T08:57:51;18.00;99.90
17740;DHT22;8990;33.226;-97.150;2022-12-10T09:00:20;18.10;99.90
17740;DHT22;8990;33.226;-97.150;2022-12-10T09:02:51;18.10;99.90
17740;DHT22;8990;33.226;-97.150;2022-12-10T09:05:22;18.10;99.90
17740;DHT22;8990;33.226;-97.150;2022-12-10T09:07:52;18.10;99.90
17740;DHT22;8990;33.226;-97.150;2022-12-10T09:10:22;18.10;99.90
17740;DHT22;8990;33.226;-97.150;2022-12-10T09:12:51;18.10;99.90
17740;DHT22;8990;33.226;-97.150;2022-12-10T09:15:21;18.10;99.90
17740;DHT22;8990;33.226;-97.150;2022-12-10T09:17:51;18.10;99.90
17740;DHT22;8990;33.226;-97.150;2022-12-10T09:20:20;18.20;99.90
17740;DHT22;8990;33.226;-97.150;2022-12-10T09:22:52;18.20;99.90
17740;DHT22;8990;33.226;-97.150;2022-12-10T09:25:22;18.20;99.90
17740;DHT22;8990;33.226;-97.150;2022-12-10T09:27:50;18.20;99.90
17740;DHT22;8990;33.226;-97.150;2022-12-10T09:30:19;18.20;99.90
17740;DHT22;8990;33.226;-97.150;2022-12-10T09:32:48;18.30;99.90
17740;DHT22;8990;33.226;-97.150;2022-12-10T09:35:19;18.20;99.90
17740;DHT22;8990;33.226;-97.150;2022-12-10T09:37:49;18.30;99.90
17740;DHT22;8990;33.226;-97.150;2022-12-10T09:40:29;18.30;99.90
17740;DHT22;8990;33.226;-97.150;2022-12-10T09:43:10;18.30;99.90
17740;DHT22;8990;33.226;-97.150;2022-12-10T09:45:50;18.30;99.90
17740;DHT22;8990;33.226;-97.150;2022-12-10T09:48:28;18.20;99.90
17740;DHT22;8990;33.226;-97.150;2022-12-10T09:51:05;18.30;99.90
17740;DHT22;8990;33.226;-97.150;2022-12-10T09:53:37;18.30;99.90
17740;DHT22;8990;33.226;-97.150;2022-12-10T09:56:19;18.30;99.90
17740;DHT22;8990;33.226;-97.150;2022-12-10T09:58:51;18.30;99.90
17740;DHT22;8990;33.226;-97.150;2022-12-10T10:01:25;18.30;99.90
17740;DHT22;8990;33.226;-97.150;2022-12-10T10:03:57;18.30;99.90
17740;DHT22;8990;33.226;-97.150;2022-12-10T10:06:28;18.30;99.90
17740;DHT22;8990;33.226;-97.150;2022-12-10T10:08:59;18.30;99.90
17740;DHT22;8990;33.226;-97.150;2022-12-10T10:11:34;18.30;99.90
17740;DHT22;8990;33.226;-97.150;2022-12-10T10:14:08;18.30;99.90
17740;DHT22;8990;33.226;-97.150;2022-12-10T10:16:46;18.30;99.90
17740;DHT22;8990;33.226;-97.150;2022-12-10T10:19:20;18.30;99.90
17740;DHT22;8990;33.226;-97.150;2022-12-10T10:21:51;18.30;99.90
17740;DHT22;8990;33.226;-97.150;2022-12-10T10:24:28;18.30;99.90
17740;DHT22;8990;33.226;-97.150;2022-12-10T10:27:12;18.30;99.90
17740;DHT22;8990;33.226;-97.150;2022-12-10T10:29:43;18.30;99.90
17740;DHT22;8990;33.226;-97.150;2022-12-10T10:32:17;18.30;99.90
17740;DHT22;8990;33.226;-97.150;2022-12-10T10:34:53;18.30;99.90
17740;DHT22;8990;33.226;-97.150;2022-12-10T10:37:26;18.30;99.90
17740;DHT22;8990;33.226;-97.150;2022-12-10T10:39:58;18.30;99.90
17740;DHT22;8990;33.226;-97.150;2022-12-10T10:42:35;18.30;99.90
17740;DHT22;8990;33.226;-97.150;2022-12-10T10:48:05;18.40;99.90
17740;DHT22;8990;33.226;-97.150;2022-12-10T10:50:42;18.40;99.90
17740;DHT22;8990;33.226;-97.150;2022-12-10T10:53:26;18.40;99.90
17740;DHT22;8990;33.226;-97.150;2022-12-10T10:56:09;18.40;99.90
17740;DHT22;8990;33.226;-97.150;2022-12-10T10:58:55;18.40;99.90
17740;DHT22;8990;33.226;-97.150;2022-12-10T11:01:27;18.40;99.90
17740;DHT22;8990;33.226;-97.150;2022-12-10T11:04:13;18.40;99.90
17740;DHT22;8990;33.226;-97.150;2022-12-10T11:06:44;18.40;99.90
17740;DHT22;8990;33.226;-97.150;2022-12-10T11:09:20;18.40;99.90
17740;DHT22;8990;33.226;-97.150;2022-12-10T11:11:51;18.40;99.90
17740;DHT22;8990;33.226;-97.150;2022-12-10T11:14:29;18.40;99.90
17740;DHT22;8990;33.226;-97.150;2022-12-10T11:17:12;18.40;99.90
17740;DHT22;8990;33.226;-97.150;2022-12-10T11:19:55;18.40;99.90
17740;DHT22;8990;33.226;-97.150;2022-12-10T11:22:26;18.40;99.90
17740;DHT22;8990;33.226;-97.150;2022-12-10T11:24:56;18.40;99.90
17740;DHT22;8990;33.226;-97.150;2022-12-10T11:27:48;18.40;99.90
17740;DHT22;8990;33.226;-97.150;2022-12-10T11:30:26;18.40;99.90
17740;DHT22;8990;33.226;-97.150;2022-12-10T11:33:17;18.40;99.90
17740;DHT22;8990;33.226;-97.150;2022-12-10T11:35:56;18.40;99.90
17740;DHT22;8990;33.226;-97.150;2022-12-10T11:38:34;18.40;99.90
17740;DHT22;8990;33.226;-97.150;2022-12-10T11:41:17;18.40;99.90
17740;DHT22;8990;33.226;-97.150;2022-12-10T11:44:06;18.40;99.90
17740;DHT22;8990;33.226;-97.150;2022-12-10T11:47:05;18.40;99.90
17740;DHT22;8990;33.226;-97.150;2022-12-10T11:49:42;18.40;99.90
17740;DHT22;8990;33.226;-97.150;2022-12-10T11:52:24;18.40;99.90
17740;DHT22;8990;33.226;-97.150;2022-12-10T11:55:04;18.50;99.90
17740;DHT22;8990;33.226;-97.150;2022-12-10T11:57:44;18.50;99.90
17740;DHT22;8990;33.226;-97.150;2022-12-10T12:00:22;18.50;99.90
17740;DHT22;8990;33.226;-97.150;2022-12-10T12:03:16;18.40;99.90
17740;DHT22;8990;33.226;-97.150;2022-12-10T12:06:07;18.40;99.90
17740;DHT22;8990;33.226;-97.150;2022-12-10T12:08:51;18.40;99.90
17740;DHT22;8990;33.226;-97.150;2022-12-10T12:11:33;18.40;99.90
17740;DHT22;8990;33.226;-97.150;2022-12-10T12:14:12;18.50;99.90
17740;DHT22;8990;33.226;-97.150;2022-12-10T12:16:47;18.50;99.90
17740;DHT22;8990;33.226;-97.150;2022-12-10T12:19:29;18.50;99.90
17740;DHT22;8990;33.226;-97.150;2022-12-10T12:22:07;18.40;99.90
17740;DHT22;8990;33.226;-97.150;2022-12-10T12:24:41;18.50;99.90
17740;DHT22;8990;33.226;-97.150;2022-12-10T12:27:22;18.40;99.90
17740;DHT22;8990;33.226;-97.150;2022-12-10T12:30:03;18.50;99.90
17740;DHT22;8990;33.226;-97.150;2022-12-10T12:32:45;18.50;99.90
17740;DHT22;8990;33.226;-97.150;2022-12-10T12:35:23;18.40;99.90
17740;DHT22;8990;33.226;-97.150;2022-12-10T12:38:01;18.40;99.90
17740;DHT22;8990;33.226;-97.150;2022-12-10T12:40:35;18.40;99.90
17740;DHT22;8990;33.226;-97.150;2022-12-10T12:43:13;18.40;99.90
17740;DHT22;8990;33.226;-97.150;2022-12-10T12:45:48;18.40;99.90
17740;DHT22;8990;33.226;-97.150;2022-12-10T12:48:24;18.40;99.90
17740;DHT22;8990;33.226;-97.150;2022-12-10T12:51:02;18.40;99.90
17740;DHT22;8990;33.226;-97.150;2022-12-10T12:53:34;18.40;99.90
17740;DHT22;8990;33.226;-97.150;2022-12-10T12:56:15;18.40;99.90
17740;DHT22;8990;33.226;-97.150;2022-12-10T12:58:51;18.40;99.90
17740;DHT22;8990;33.226;-97.150;2022-12-10T13:01:30;18.40;99.90
17740;DHT22;8990;33.226;-97.150;2022-12-10T13:04:02;18.40;99.90
17740;DHT22;8990;33.226;-97.150;2022-12-10T13:06:35;18.40;99.90
17740;DHT22;8990;33.226;-97.150;2022-12-10T13:09:25;18.40;99.90
17740;DHT22;8990;33.226;-97.150;2022-12-10T13:12:17;18.40;99.90
17740;DHT22;8990;33.226;-97.150;2022-12-10T13:15:01;18.40;99.90
17740;DHT22;8990;33.226;-97.150;2022-12-10T13:17:33;18.40;99.90
17740;DHT22;8990;33.226;-97.150;2022-12-10T13:20:28;18.40;99.90
17740;DHT22;8990;33.226;-97.150;2022-12-10T13:23:02;18.40;99.90
17740;DHT22;8990;33.226;-97.150;2022-12-10T13:25:55;18.40;99.90
17740;DHT22;8990;33.226;-97.150;2022-12-10T13:28:40;18.40;99.90
17740;DHT22;8990;33.226;-97.150;2022-12-10T13:31:32;18.40;99.90
17740;DHT22;8990;33.226;-97.150;2022-12-10T13:34:30;18.40;99.90
17740;DHT22;8990;33.226;-97.150;2022-12-10T13:37:14;18.40;99.90
17740;DHT22;8990;33.226;-97.150;2022-12-10T13:39:58;18.40;99.90
17740;DHT22;8990;33.226;-97.150;2022-12-10T13:42:32;18.40;99.90
17740;DHT22;8990;33.226;-97.150;2022-12-10T13:45:31;18.40;99.90
17740;DHT22;8990;33.226;-97.150;2022-12-10T13:48:26;18.40;99.90
17740;DHT22;8990;33.226;-97.150;2022-12-10T13:51:21;18.40;99.90
17740;DHT22;8990;33.226;-97.150;2022-12-10T13:56:55;18.40;99.90
17740;DHT22;8990;33.226;-97.150;2022-12-10T13:59:33;18.40;99.90
17740;DHT22;8990;33.226;-97.150;2022-12-10T14:05:42;18.50;99.90
17740;DHT22;8990;33.226;-97.150;2022-12-10T14:08:18;18.50;99.90
17740;DHT22;8990;33.226;-97.150;2022-12-10T14:10:50;18.50;99.90
17740;DHT22;8990;33.226;-97.150;2022-12-10T14:13:24;18.50;99.90
17740;DHT22;8990;33.226;-97.150;2022-12-10T14:16:01;18.60;99.90
17740;DHT22;8990;33.226;-97.150;2022-12-10T14:18:32;18.60;99.90
17740;DHT22;8990;33.226;-97.150;2022-12-10T14:21:05;18.60;99.90
17740;DHT22;8990;33.226;-97.150;2022-12-10T14:23:44;18.60;99.90
17740;DHT22;8990;33.226;-97.150;2022-12-10T14:26:15;18.60;99.90
17740;DHT22;8990;33.226;-97.150;2022-12-10T14:28:47;18.60;99.90
17740;DHT22;8990;33.226;-97.150;2022-12-10T14:31:20;18.60;99.90
17740;DHT22;8990;33.226;-97.150;2022-12-10T14:33:54;18.60;99.90
17740;DHT22;8990;33.226;-97.150;2022-12-10T14:36:28;18.60;99.90
17740;DHT22;8990;33.226;-97.150;2022-12-10T14:38:59;18.60;99.90
17740;DHT22;8990;33.226;-97.150;2022-12-10T14:41:31;18.60;99.90
17740;DHT22;8990;33.226;-97.150;2022-12-10T14:44:04;18.60;99.90
17740;DHT22;8990;33.226;-97.150;2022-12-10T14:46:34;18.60;99.90
17740;DHT22;8990;33.226;-97.150;2022-12-10T14:49:06;18.70;99.90
17740;DHT22;8990;33.226;-97.150;2022-12-10T14:51:38;18.70;99.90
17740;DHT22;8990;33.226;-97.150;2022-12-10T14:54:26;18.70;99.90
17740;DHT22;8990;33.226;-97.150;2022-12-10T14:57:01;18.70;99.90
17740;DHT22;8990;33.226;-97.150;2022-12-10T14:59:37;18.70;99.90
17740;DHT22;8990;33.226;-97.150;2022-12-10T15:02:14;18.70;99.90
17740;DHT22;8990;33.226;-97.150;2022-12-10T15:04:48;18.70;99.90
17740;DHT22;8990;33.226;-97.150;2022-12-10T15:07:20;18.80;99.90
17740;DHT22;8990;33.226;-97.150;2022-12-10T15:09:53;18.70;99.90
17740;DHT22;8990;33.226;-97.150;2022-12-10T15:12:42;18.80;99.90
17740;DHT22;8990;33.226;-97.150;2022-12-10T15:15:16;18.70;99.90
17740;DHT22;8990;33.226;-97.150;2022-12-10T15:17:57;18.80;99.90
17740;DHT22;8990;33.226;-97.150;2022-12-10T15:20:29;18.80;99.90
17740;DHT22;8990;33.226;-97.150;2022-12-10T15:23:11;18.80;99.90
17740;DHT22;8990;33.226;-97.150;2022-12-10T15:25:46;18.70;99.90
17740;DHT22;8990;33.226;-97.150;2022-12-10T15:28:23;18.70;99.90
17740;DHT22;8990;33.226;-97.150;2022-12-10T15:30:58;18.70;99.90
17740;DHT22;8990;33.226;-97.150;2022-12-10T15:33:42;18.70;99.90
17740;DHT22;8990;33.226;-97.150;2022-12-10T15:36:20;18.80;99.90
17740;DHT22;8990;33.226;-97.150;2022-12-10T15:38:51;18.80;99.90
17740;DHT22;8990;33.226;-97.150;2022-12-10T15:41:42;18.80;99.90
17740;DHT22;8990;33.226;-97.150;2022-12-10T15:44:24;18.90;99.90
17740;DHT22;8990;33.226;-97.150;2022-12-10T15:47:12;18.90;99.90
17740;DHT22;8990;33.226;-97.150;2022-12-10T15:49:44;18.90;99.90
17740;DHT22;8990;33.226;-97.150;2022-12-10T15:52:16;18.90;99.90
17740;DHT22;8990;33.226;-97.150;2022-12-10T15:54:48;18.90;99.90
17740;DHT22;8990;33.226;-97.150;2022-12-10T15:57:22;18.90;99.90
17740;DHT22;8990;33.226;-97.150;2022-12-10T15:59:53;18.90;99.90
17740;DHT22;8990;33.226;-97.150;2022-12-10T16:02:32;19.00;99.90
17740;DHT22;8990;33.226;-97.150;2022-12-10T16:05:10;18.90;99.90
17740;DHT22;8990;33.226;-97.150;2022-12-10T16:07:42;18.90;99.90